Time;durP1;ratioP1;P1;durP2;ratioP2;P2;SDS_P1;SDS_P2;PMS_P1;PMS_P2;Temp;Humidity;BMP_temperature;BMP_pressure;BME280_temperature;BME280_humidity;BME280_pressure;Samples;Min_cycle;Max_cycle;Signal;HPM_P1;HPM_P2
2021/11/05 00:00:48;;;;;;;8.90;5.17;;;8.30;99.90;;;;;;4975287;28;20473;-49
2021/11/05 00:03:14;;;;;;;6.97;5.73;;;8.30;99.90;;;;;;4975443;28;20205;-45
2021/11/05 00:05:39;;;;;;;5.87;5.33;;;8.30;99.90;;;;;;4975734;28;20193;-50
2021/11/05 00:08:08;;;;;;;7.37;5.40;;;8.20;99.90;;;;;;4973659;28;20320;-45
2021/11/05 00:10:39;;;;;;;9.23;5.30;;;8.20;99.90;;;;;;4974848;28;20594;-48
2021/11/05 00:13:05;;;;;;;9.03;5.50;;;8.10;99.90;;;;;;4978986;28;20512;-48
2021/11/05 00:15:31;;;;;;;7.10;5.43;;;8.10;99.90;;;;;;4976728;28;21024;-48
2021/11/05 00:17:57;;;;;;;5.70;5.20;;;8.10;99.90;;;;;;4978065;28;20560;-48
2021/11/05 00:20:23;;;;;;;5.80;5.23;;;8.10;99.90;;;;;;4973015;28;20198;-48
2021/11/05 00:22:49;;;;;;;6.50;5.27;;;8.10;99.90;;;;;;4975149;28;21050;-51
2021/11/05 00:25:15;;;;;;;5.70;5.07;;;8.10;99.90;;;;;;4974938;28;20497;-45
2021/11/05 00:27:41;;;;;;;6.50;5.77;;;8.20;99.90;;;;;;4973926;28;20466;-44
2021/11/05 00:30:09;;;;;;;5.53;4.77;;;8.10;99.90;;;;;;4974405;28;20193;-44
2021/11/05 00:32:35;;;;;;;6.30;5.50;;;8.00;99.90;;;;;;4979942;28;20468;-47
2021/11/05 00:35:01;;;;;;;6.27;5.60;;;8.00;99.90;;;;;;4975374;28;20477;-48
2021/11/05 00:37:27;;;;;;;5.60;5.00;;;8.00;99.90;;;;;;4977589;28;20216;-45
2021/11/05 00:39:53;;;;;;;7.20;5.60;;;8.00;99.90;;;;;;4974110;28;20210;-50
2021/11/05 00:42:18;;;;;;;11.37;6.30;;;8.10;99.90;;;;;;4972774;28;20944;-46
2021/11/05 00:44:44;;;;;;;5.57;5.07;;;8.00;99.90;;;;;;4976213;28;20656;-48
2021/11/05 00:47:10;;;;;;;6.20;5.60;;;8.00;99.90;;;;;;4976142;28;20472;-47
2021/11/05 00:49:36;;;;;;;7.03;5.57;;;8.00;99.90;;;;;;4975200;28;20231;-50
2021/11/05 00:52:02;;;;;;;9.00;5.80;;;8.10;99.90;;;;;;4981632;28;20801;-46
2021/11/05 00:54:27;;;;;;;5.90;5.30;;;8.00;99.90;;;;;;4981349;28;20568;-45
2021/11/05 00:56:53;;;;;;;6.20;5.33;;;8.00;99.90;;;;;;4976998;28;20201;-45
2021/11/05 00:59:18;;;;;;;6.10;5.50;;;8.10;99.90;;;;;;4982674;28;20611;-51
2021/11/05 01:01:44;;;;;;;6.80;5.37;;;8.10;99.90;;;;;;4979877;28;20208;-46
2021/11/05 01:04:10;;;;;;;5.67;5.07;;;8.10;99.90;;;;;;4976983;28;20190;-50
2021/11/05 01:06:35;;;;;;;7.30;5.40;;;8.00;99.90;;;;;;4981573;28;20186;-46
2021/11/05 01:09:03;;;;;;;6.07;5.47;;;8.10;99.90;;;;;;4978534;28;20214;-45
2021/11/05 01:11:28;;;;;;;6.47;5.50;;;8.00;99.90;;;;;;4980739;28;20562;-45
2021/11/05 01:13:54;;;;;;;6.33;4.90;;;8.00;99.90;;;;;;4981608;28;20440;-45
2021/11/05 01:16:20;;;;;;;7.37;5.73;;;8.00;99.90;;;;;;4986485;28;20190;-51
2021/11/05 01:18:47;;;;;;;6.67;5.80;;;8.00;99.90;;;;;;4982898;28;20237;-49
2021/11/05 01:21:13;;;;;;;5.80;4.83;;;7.90;99.90;;;;;;4979041;28;20194;-48
2021/11/05 01:23:38;;;;;;;5.17;4.67;;;7.90;99.90;;;;;;4980872;28;20444;-45
2021/11/05 01:26:04;;;;;;;6.20;5.30;;;7.90;99.90;;;;;;4980157;28;20536;-49
2021/11/05 01:28:30;;;;;;;8.00;4.90;;;7.80;99.90;;;;;;4965588;28;20329;-51
2021/11/05 01:30:55;;;;;;;6.20;5.60;;;7.90;99.90;;;;;;4979123;28;20197;-48
2021/11/05 01:33:21;;;;;;;6.43;5.33;;;7.90;99.90;;;;;;4978767;28;20205;-46
2021/11/05 01:35:49;;;;;;;7.10;5.00;;;7.90;99.90;;;;;;4979919;28;21391;-49
2021/11/05 01:38:14;;;;;;;5.83;5.13;;;7.90;99.90;;;;;;4979714;28;20300;-47
2021/11/05 01:40:42;;;;;;;9.23;4.73;;;8.00;99.90;;;;;;4983123;28;20522;-51
2021/11/05 01:43:09;;;;;;;5.37;4.87;;;7.90;99.90;;;;;;4972772;28;20925;-48
2021/11/05 01:45:34;;;;;;;9.80;5.17;;;7.90;99.90;;;;;;4983348;28;20439;-45
2021/11/05 01:48:00;;;;;;;5.40;4.23;;;8.00;99.90;;;;;;4981436;28;21004;-46
2021/11/05 01:50:27;;;;;;;8.63;4.97;;;8.00;99.90;;;;;;4979605;28;20189;-46
2021/11/05 01:52:54;;;;;;;5.10;4.13;;;8.00;99.90;;;;;;4977306;28;20175;-47
2021/11/05 01:55:19;;;;;;;8.67;4.10;;;8.00;99.90;;;;;;4977907;28;20960;-46
2021/11/05 01:57:47;;;;;;;5.27;3.90;;;8.10;99.90;;;;;;4977921;28;20440;-46
2021/11/05 02:00:16;;;;;;;5.20;4.53;;;8.00;99.90;;;;;;4976470;28;20182;-46
2021/11/05 02:02:43;;;;;;;5.43;3.50;;;8.10;99.90;;;;;;4986574;28;20436;-47
2021/11/05 02:05:10;;;;;;;4.37;3.90;;;8.10;99.90;;;;;;4976639;28;20483;-50
2021/11/05 02:07:37;;;;;;;5.30;4.27;;;8.10;99.90;;;;;;4978135;28;20467;-48
2021/11/05 02:10:07;;;;;;;4.70;4.00;;;8.10;99.90;;;;;;4980159;28;20868;-46
2021/11/05 02:12:33;;;;;;;4.40;4.00;;;8.00;99.90;;;;;;4977797;28;20452;-50
2021/11/05 02:15:00;;;;;;;5.73;4.30;;;8.00;99.90;;;;;;4975475;28;23063;-48
2021/11/05 02:17:26;;;;;;;5.93;4.60;;;8.10;99.90;;;;;;4978488;28;20794;-45
2021/11/05 02:19:52;;;;;;;5.17;4.67;;;8.00;99.90;;;;;;4978946;28;20452;-47
2021/11/05 02:22:19;;;;;;;4.23;3.83;;;8.00;99.90;;;;;;4981392;28;21013;-49
2021/11/05 02:24:45;;;;;;;4.50;4.10;;;8.00;99.90;;;;;;4978618;28;21015;-47
2021/11/05 02:27:11;;;;;;;8.00;4.10;;;8.00;99.90;;;;;;4978889;28;20581;-47
2021/11/05 02:29:37;;;;;;;5.03;4.40;;;8.00;99.90;;;;;;4978111;28;20990;-47
2021/11/05 02:32:04;;;;;;;4.77;3.80;;;7.90;99.90;;;;;;4981755;28;20191;-47
2021/11/05 02:34:32;;;;;;;5.23;4.10;;;7.90;99.90;;;;;;4978144;28;20483;-47
2021/11/05 02:36:58;;;;;;;4.73;4.23;;;8.10;99.90;;;;;;4978725;28;20452;-48
2021/11/05 02:39:24;;;;;;;4.93;4.43;;;8.10;99.90;;;;;;4977695;28;20478;-48
2021/11/05 02:41:51;;;;;;;5.93;3.73;;;8.10;99.90;;;;;;4968066;28;20441;-45
2021/11/05 02:44:18;;;;;;;5.00;4.30;;;8.10;99.90;;;;;;4974841;28;20189;-45
2021/11/05 02:46:43;;;;;;;4.40;3.70;;;8.10;99.90;;;;;;4980023;28;20451;-46
2021/11/05 02:49:13;;;;;;;6.00;3.80;;;8.00;99.90;;;;;;4978098;28;20579;-47
2021/11/05 02:51:39;;;;;;;4.30;3.90;;;8.10;99.90;;;;;;4975636;28;20206;-50
2021/11/05 02:54:05;;;;;;;5.50;4.47;;;8.10;99.90;;;;;;4980180;28;20850;-48
2021/11/05 02:56:31;;;;;;;5.13;4.37;;;8.10;99.90;;;;;;4976596;28;20225;-44
2021/11/05 02:58:58;;;;;;;4.87;4.37;;;8.00;99.90;;;;;;4979125;28;20488;-45
2021/11/05 03:01:24;;;;;;;5.40;4.60;;;8.10;99.90;;;;;;4982211;28;20449;-50
2021/11/05 03:03:50;;;;;;;5.70;4.10;;;8.00;99.90;;;;;;4976745;28;20778;-51
2021/11/05 03:06:16;;;;;;;5.40;3.80;;;8.10;99.90;;;;;;4976288;28;20452;-47
2021/11/05 03:08:41;;;;;;;5.70;4.63;;;8.10;99.90;;;;;;4978886;28;20516;-51
2021/11/05 03:11:11;;;;;;;4.30;3.90;;;8.10;99.90;;;;;;4977048;28;20731;-48
2021/11/05 03:13:41;;;;;;;4.93;4.43;;;8.20;99.90;;;;;;4978387;28;20184;-45
2021/11/05 03:16:08;;;;;;;4.70;4.20;;;8.20;99.90;;;;;;4975232;28;20467;-50
2021/11/05 03:18:38;;;;;;;4.80;4.40;;;8.20;99.90;;;;;;4977834;28;20539;-48
2021/11/05 03:21:04;;;;;;;5.30;4.80;;;8.10;99.90;;;;;;4979734;28;20471;-50
2021/11/05 03:23:29;;;;;;;6.70;5.07;;;8.00;99.90;;;;;;4978450;28;21041;-49
2021/11/05 03:25:55;;;;;;;4.90;4.27;;;8.00;99.90;;;;;;4977078;28;20667;-48
2021/11/05 03:28:21;;;;;;;5.77;5.17;;;8.00;99.90;;;;;;4977173;28;21528;-47
2021/11/05 03:30:47;;;;;;;5.80;5.10;;;8.00;99.90;;;;;;4977088;28;20181;-48
2021/11/05 03:33:13;;;;;;;5.70;5.07;;;8.00;99.90;;;;;;4979872;28;20602;-46
2021/11/05 03:35:39;;;;;;;6.90;5.17;;;7.90;99.90;;;;;;4977516;28;20444;-49
2021/11/05 03:38:05;;;;;;;5.97;5.37;;;7.90;99.90;;;;;;4975080;28;20512;-47
2021/11/05 03:40:32;;;;;;;5.03;4.53;;;7.90;99.90;;;;;;4977796;28;20193;-45
2021/11/05 03:42:58;;;;;;;6.60;5.40;;;8.00;99.90;;;;;;4976780;28;20275;-48
2021/11/05 03:45:23;;;;;;;5.17;4.67;;;8.00;99.90;;;;;;4975405;28;20552;-47
2021/11/05 03:47:49;;;;;;;5.70;5.10;;;8.00;99.90;;;;;;4965886;28;20213;-46
2021/11/05 03:50:15;;;;;;;6.63;5.00;;;8.00;99.90;;;;;;4973072;28;22172;-49
2021/11/05 03:52:41;;;;;;;5.47;4.90;;;8.00;99.90;;;;;;4977386;28;20272;-46
2021/11/05 03:55:07;;;;;;;5.23;4.73;;;8.00;99.90;;;;;;4976473;28;20565;-47
2021/11/05 03:57:33;;;;;;;5.93;5.30;;;8.00;99.90;;;;;;4978286;28;20197;-47
2021/11/05 03:59:59;;;;;;;5.60;5.00;;;8.00;99.90;;;;;;4976367;28;21262;-49
2021/11/05 04:02:25;;;;;;;6.87;5.00;;;8.00;99.90;;;;;;4973743;28;20243;-52
2021/11/05 04:04:54;;;;;;;6.30;4.53;;;8.00;99.90;;;;;;4977974;28;20265;-48
2021/11/05 04:07:21;;;;;;;7.87;5.97;;;8.00;99.90;;;;;;4979769;28;20341;-48
2021/11/05 04:09:46;;;;;;;6.60;5.90;;;8.00;99.90;;;;;;4977884;28;20460;-46
2021/11/05 04:12:12;;;;;;;5.73;5.13;;;8.00;99.90;;;;;;4975583;28;20480;-51
2021/11/05 04:14:38;;;;;;;5.83;5.23;;;8.00;99.90;;;;;;4979199;28;20182;-48
2021/11/05 04:17:04;;;;;;;5.43;4.93;;;8.10;99.90;;;;;;4975797;28;20217;-49
2021/11/05 04:19:29;;;;;;;5.67;4.83;;;8.00;99.90;;;;;;4977003;28;20443;-48
2021/11/05 04:21:55;;;;;;;7.90;5.50;;;8.00;99.90;;;;;;4978457;28;20844;-51
2021/11/05 04:24:20;;;;;;;6.17;5.57;;;8.00;99.90;;;;;;4975764;28;20196;-47
2021/11/05 04:26:46;;;;;;;9.23;5.20;;;8.10;99.90;;;;;;4974546;28;20268;-46
2021/11/05 04:29:12;;;;;;;6.83;5.50;;;8.10;99.90;;;;;;4974934;28;20219;-50
2021/11/05 04:31:38;;;;;;;6.03;5.43;;;8.10;99.90;;;;;;4975069;28;20177;-48
2021/11/05 04:34:04;;;;;;;6.53;5.70;;;8.20;99.90;;;;;;4971884;28;20643;-48
2021/11/05 04:36:33;;;;;;;5.90;5.30;;;8.10;99.90;;;;;;4978027;28;20443;-50
2021/11/05 04:38:59;;;;;;;6.13;5.23;;;8.20;99.90;;;;;;4976453;28;20888;-49
2021/11/05 04:41:25;;;;;;;6.17;5.03;;;8.20;99.90;;;;;;4975056;28;20455;-47
2021/11/05 04:43:50;;;;;;;7.20;5.83;;;8.30;99.90;;;;;;4976844;28;20553;-45
2021/11/05 04:46:25;;;;;;;6.37;5.13;;;8.30;99.90;;;;;;4975634;28;20204;-49
2021/11/05 04:48:51;;;;;;;7.83;5.93;;;8.10;99.90;;;;;;5007125;23;20324;-48
2021/11/05 04:51:17;;;;;;;7.20;5.80;;;8.20;99.90;;;;;;4973919;28;20903;-47
2021/11/05 04:53:43;;;;;;;5.20;4.70;;;8.20;99.90;;;;;;4974981;28;20185;-49
2021/11/05 04:56:09;;;;;;;6.83;6.10;;;8.20;99.90;;;;;;4976677;28;20947;-47
2021/11/05 04:58:35;;;;;;;7.83;5.70;;;8.20;99.90;;;;;;4973100;28;20472;-47
2021/11/05 05:01:00;;;;;;;7.13;5.60;;;8.20;99.90;;;;;;4973633;28;20244;-44
2021/11/05 05:03:26;;;;;;;6.50;5.30;;;8.10;99.90;;;;;;4974616;28;20190;-43
2021/11/05 05:05:52;;;;;;;8.53;6.27;;;8.10;99.90;;;;;;4977818;28;20187;-46
2021/11/05 05:08:17;;;;;;;7.17;5.70;;;8.20;99.90;;;;;;4975026;28;20638;-43
2021/11/05 05:10:43;;;;;;;7.93;5.60;;;8.20;99.90;;;;;;4977571;28;20253;-45
2021/11/05 05:13:09;;;;;;;7.70;5.97;;;8.20;99.90;;;;;;4974890;28;20206;-42
2021/11/05 05:15:35;;;;;;;6.33;5.70;;;8.20;99.90;;;;;;4976533;28;20811;-45
2021/11/05 05:18:00;;;;;;;6.77;6.07;;;8.20;99.90;;;;;;4977363;28;20185;-45
2021/11/05 05:20:26;;;;;;;8.87;6.60;;;8.30;99.90;;;;;;4975087;28;20198;-43
2021/11/05 05:22:51;;;;;;;7.27;6.07;;;8.30;99.90;;;;;;4977600;28;20686;-43
2021/11/05 05:25:18;;;;;;;7.57;6.37;;;8.20;99.90;;;;;;4976161;28;20252;-50
2021/11/05 05:27:46;;;;;;;6.93;6.20;;;8.30;99.90;;;;;;4977086;28;20217;-47
2021/11/05 05:30:14;;;;;;;7.13;6.43;;;8.40;99.90;;;;;;4970508;28;20569;-47
2021/11/05 05:32:41;;;;;;;8.03;6.80;;;8.40;99.90;;;;;;4971967;28;20449;-45
2021/11/05 05:35:07;;;;;;;7.60;6.53;;;8.30;99.90;;;;;;4976718;28;20441;-44
2021/11/05 05:37:32;;;;;;;8.50;6.77;;;8.40;99.90;;;;;;4974104;28;20576;-46
2021/11/05 05:39:58;;;;;;;8.83;7.70;;;8.40;99.90;;;;;;4978270;28;20997;-44
2021/11/05 05:42:24;;;;;;;8.93;7.03;;;8.40;99.90;;;;;;4976733;28;20212;-47
2021/11/05 05:44:49;;;;;;;9.17;7.83;;;8.30;99.90;;;;;;4976027;28;20284;-43
2021/11/05 05:47:15;;;;;;;10.27;7.60;;;8.30;99.90;;;;;;4976749;28;20240;-43
2021/11/05 05:49:41;;;;;;;9.43;7.67;;;8.30;99.90;;;;;;4975968;28;20265;-44
2021/11/05 05:52:06;;;;;;;9.03;7.97;;;8.30;99.90;;;;;;4977450;28;20280;-44
2021/11/05 05:54:32;;;;;;;12.80;8.37;;;8.20;99.90;;;;;;4975025;28;20570;-47
2021/11/05 05:56:59;;;;;;;12.03;8.40;;;8.10;99.90;;;;;;4968715;28;20280;-46
2021/11/05 05:59:25;;;;;;;9.70;8.07;;;8.10;99.90;;;;;;4974546;28;20412;-42
2021/11/05 06:01:50;;;;;;;10.80;8.80;;;8.00;99.90;;;;;;4976103;28;20925;-45
2021/11/05 06:04:17;;;;;;;12.73;8.60;;;8.00;99.90;;;;;;4977979;28;20453;-46
2021/11/05 06:06:43;;;;;;;11.90;10.10;;;8.00;99.90;;;;;;4976063;28;20205;-45
2021/11/05 06:09:09;;;;;;;10.20;8.80;;;8.00;99.90;;;;;;4979432;28;20461;-45
2021/11/05 06:11:34;;;;;;;10.90;8.30;;;8.00;99.90;;;;;;4975449;28;20182;-47
2021/11/05 06:14:00;;;;;;;11.07;9.27;;;8.00;99.90;;;;;;4978131;28;20183;-48
2021/11/05 06:16:25;;;;;;;10.63;8.83;;;8.00;99.90;;;;;;4975074;28;20193;-47
2021/11/05 06:18:51;;;;;;;9.33;8.23;;;8.00;99.90;;;;;;4974549;28;20256;-45
2021/11/05 06:21:17;;;;;;;10.63;8.57;;;7.90;99.90;;;;;;4975336;28;20198;-43
2021/11/05 06:23:43;;;;;;;12.70;8.90;;;8.00;99.90;;;;;;4975911;28;20479;-44
2021/11/05 06:26:08;;;;;;;10.50;8.80;;;8.00;99.90;;;;;;4977872;28;20449;-46
2021/11/05 06:28:34;;;;;;;9.10;8.07;;;8.00;99.90;;;;;;4973316;28;20765;-50
2021/11/05 06:31:00;;;;;;;9.63;8.63;;;8.00;99.90;;;;;;4974331;28;20182;-45
2021/11/05 06:33:25;;;;;;;10.50;8.30;;;8.10;99.90;;;;;;4975057;28;20188;-42
2021/11/05 06:35:51;;;;;;;9.80;8.00;;;8.00;99.90;;;;;;4975055;28;20619;-43
2021/11/05 06:38:17;;;;;;;10.90;7.97;;;8.10;99.90;;;;;;4971877;28;20269;-43
2021/11/05 06:40:43;;;;;;;10.97;9.00;;;8.10;99.90;;;;;;4974528;28;20210;-47
2021/11/05 06:43:09;;;;;;;9.33;7.67;;;8.10;99.90;;;;;;4978876;28;20338;-42
2021/11/05 06:45:34;;;;;;;12.80;9.30;;;8.10;99.90;;;;;;4978287;28;20472;-45
2021/11/05 06:48:00;;;;;;;11.00;9.37;;;8.10;99.90;;;;;;4974268;28;20476;-47
2021/11/05 06:50:26;;;;;;;13.03;9.30;;;8.10;99.90;;;;;;4973249;28;20206;-45
2021/11/05 06:52:52;;;;;;;13.90;8.90;;;8.20;99.90;;;;;;4978884;28;20178;-45
2021/11/05 06:55:18;;;;;;;16.60;10.27;;;8.20;99.90;;;;;;4974511;28;20405;-49
2021/11/05 06:57:43;;;;;;;10.03;7.97;;;8.30;99.90;;;;;;4974915;28;20328;-45
2021/11/05 07:00:11;;;;;;;15.07;9.30;;;8.30;99.90;;;;;;4978774;28;20214;-46
2021/11/05 07:02:41;;;;;;;10.70;9.33;;;8.30;99.90;;;;;;4976473;28;20186;-43
2021/11/05 07:05:07;;;;;;;9.80;8.00;;;8.30;99.90;;;;;;4975785;28;20452;-47
2021/11/05 07:07:33;;;;;;;9.60;8.17;;;8.30;99.90;;;;;;4975747;28;20469;-46
2021/11/05 07:09:59;;;;;;;10.57;8.63;;;8.40;99.90;;;;;;4977520;28;20449;-46
2021/11/05 07:12:24;;;;;;;11.07;9.83;;;8.40;99.90;;;;;;4978374;28;20173;-45
2021/11/05 07:14:50;;;;;;;12.10;9.90;;;8.50;99.90;;;;;;4974432;28;20265;-43
2021/11/05 07:17:15;;;;;;;11.13;8.50;;;8.50;99.90;;;;;;4977000;28;20331;-47
2021/11/05 07:19:41;;;;;;;11.30;9.03;;;8.50;99.90;;;;;;4976319;28;20212;-43
2021/11/05 07:22:07;;;;;;;12.40;10.10;;;8.50;99.90;;;;;;4975228;28;20190;-48
2021/11/05 07:24:38;;;;;;;10.10;8.30;;;8.60;99.90;;;;;;4973826;28;20196;-46
2021/11/05 07:27:05;;;;;;;9.07;7.73;;;8.60;99.90;;;;;;4979434;28;20515;-45
2021/11/05 07:29:31;;;;;;;11.33;7.90;;;8.60;99.90;;;;;;4962730;28;20456;-42
2021/11/05 07:32:00;;;;;;;9.57;7.67;;;8.60;99.90;;;;;;4971633;28;20450;-42
2021/11/05 07:34:32;;;;;;;10.00;8.50;;;8.60;99.90;;;;;;4976811;28;20478;-42
2021/11/05 07:37:02;;;;;;;9.60;8.60;;;8.60;99.90;;;;;;4972172;28;20437;-45
2021/11/05 07:39:28;;;;;;;9.10;7.77;;;8.50;99.90;;;;;;4975264;28;20490;-43
2021/11/05 07:41:54;;;;;;;10.67;8.73;;;8.60;99.90;;;;;;4973905;28;20847;-42
2021/11/05 07:44:20;;;;;;;11.17;8.43;;;8.60;99.90;;;;;;4970209;28;21046;-44
2021/11/05 07:46:47;;;;;;;8.53;7.60;;;8.60;99.90;;;;;;4973149;28;20269;-47
2021/11/05 07:49:13;;;;;;;11.33;7.97;;;8.80;99.90;;;;;;4972189;28;20573;-48
2021/11/05 07:51:39;;;;;;;12.47;9.00;;;8.80;99.90;;;;;;4978074;28;20960;-44
2021/11/05 07:54:07;;;;;;;8.83;7.80;;;8.70;99.90;;;;;;4976469;28;20429;-46
2021/11/05 07:56:33;;;;;;;9.00;7.80;;;8.70;99.90;;;;;;4976257;28;20204;-49
2021/11/05 07:58:59;;;;;;;9.23;8.10;;;8.80;99.90;;;;;;4973280;28;20468;-43
2021/11/05 08:01:25;;;;;;;9.07;7.97;;;8.70;99.90;;;;;;4975448;28;20523;-47
2021/11/05 08:03:50;;;;;;;10.70;8.37;;;8.80;99.90;;;;;;4973427;28;20472;-42
2021/11/05 08:06:17;;;;;;;11.50;8.40;;;8.80;99.90;;;;;;4976954;28;20662;-44
2021/11/05 08:08:42;;;;;;;14.43;10.67;;;8.80;99.90;;;;;;4963575;28;20242;-42
2021/11/05 08:11:09;;;;;;;12.27;8.80;;;8.80;99.90;;;;;;4973559;28;20863;-42
2021/11/05 08:13:35;;;;;;;12.37;9.77;;;8.80;99.90;;;;;;4978316;28;20189;-48
2021/11/05 08:16:00;;;;;;;10.03;8.20;;;8.80;99.90;;;;;;4971107;28;20801;-42
2021/11/05 08:18:26;;;;;;;8.43;7.57;;;8.90;99.90;;;;;;4973000;28;20296;-47
2021/11/05 08:20:52;;;;;;;11.33;8.97;;;8.90;99.90;;;;;;4959854;28;20671;-42
2021/11/05 08:23:18;;;;;;;10.83;8.27;;;8.80;99.90;;;;;;4974724;28;20272;-44
2021/11/05 08:25:47;;;;;;;9.00;8.07;;;9.00;99.90;;;;;;4973506;28;20514;-44
2021/11/05 08:28:13;;;;;;;9.53;8.53;;;9.00;99.90;;;;;;4976416;28;20210;-46
2021/11/05 08:30:39;;;;;;;10.00;7.90;;;9.00;99.90;;;;;;4974330;28;20797;-44
2021/11/05 08:33:04;;;;;;;9.47;8.50;;;9.00;99.90;;;;;;4968200;28;20852;-46
2021/11/05 08:35:31;;;;;;;12.37;8.30;;;9.10;99.90;;;;;;4972879;28;20233;-42
2021/11/05 08:37:58;;;;;;;11.23;9.30;;;9.00;99.90;;;;;;4974833;28;20178;-41
2021/11/05 08:40:24;;;;;;;10.10;8.40;;;9.10;99.90;;;;;;4975434;28;20755;-44
2021/11/05 08:42:51;;;;;;;9.40;7.60;;;9.10;99.90;;;;;;4976341;28;20417;-43
2021/11/05 08:45:17;;;;;;;10.00;8.57;;;9.10;99.90;;;;;;4973893;28;20484;-43
2021/11/05 08:47:43;;;;;;;9.83;7.97;;;9.10;99.90;;;;;;4960103;28;20465;-46
2021/11/05 08:50:20;;;;;;;10.27;7.83;;;9.10;99.90;;;;;;4975367;28;20214;-48
2021/11/05 08:52:46;;;;;;;9.77;7.73;;;9.20;99.90;;;;;;4973714;28;20429;-45
2021/11/05 08:55:13;;;;;;;7.97;7.17;;;9.20;99.90;;;;;;4962560;28;20842;-41
2021/11/05 08:57:39;;;;;;;11.77;8.50;;;9.20;99.90;;;;;;4967365;28;20978;-41
2021/11/05 09:00:09;;;;;;;10.27;8.70;;;9.10;99.90;;;;;;4976069;28;20445;-41
2021/11/05 09:02:35;;;;;;;11.07;7.50;;;9.10;99.90;;;;;;4973493;28;20193;-45
2021/11/05 09:05:02;;;;;;;8.53;7.63;;;9.20;99.90;;;;;;4975249;28;20836;-43
2021/11/05 09:07:28;;;;;;;9.73;8.53;;;9.30;99.90;;;;;;4965425;28;20213;-43
2021/11/05 09:09:54;;;;;;;8.87;7.83;;;9.30;99.90;;;;;;4975722;28;20449;-44
2021/11/05 09:12:19;;;;;;;8.87;7.80;;;9.30;99.90;;;;;;4979428;28;20192;-43
2021/11/05 09:14:45;;;;;;;9.40;8.20;;;9.40;99.90;;;;;;4976478;28;20830;-43
2021/11/05 09:17:11;;;;;;;9.40;7.93;;;9.40;99.90;;;;;;4969003;28;21411;-47
2021/11/05 09:19:37;;;;;;;8.43;7.33;;;9.40;99.90;;;;;;4982340;28;20281;-42
2021/11/05 09:22:03;;;;;;;9.43;7.70;;;9.40;99.90;;;;;;4979464;28;20559;-43
2021/11/05 09:24:28;;;;;;;10.90;8.47;;;9.50;99.90;;;;;;4981584;28;20440;-46
2021/11/05 09:26:54;;;;;;;9.83;7.23;;;9.70;99.90;;;;;;4970633;28;20461;-42
2021/11/05 09:29:19;;;;;;;11.63;9.43;;;9.70;99.90;;;;;;4976967;28;21442;-42
2021/11/05 09:31:45;;;;;;;11.00;8.43;;;9.70;99.90;;;;;;4978433;28;20187;-44
2021/11/05 09:34:11;;;;;;;10.97;8.53;;;9.80;99.90;;;;;;4977520;28;20662;-46
2021/11/05 09:36:37;;;;;;;9.90;8.17;;;9.80;99.90;;;;;;4981927;28;20194;-49
2021/11/05 09:39:04;;;;;;;10.10;8.93;;;9.90;99.90;;;;;;4973732;28;20289;-43
2021/11/05 09:41:30;;;;;;;9.57;8.33;;;9.90;99.90;;;;;;4980280;28;20550;-42
2021/11/05 09:43:55;;;;;;;9.80;8.10;;;10.00;99.90;;;;;;4974557;28;20440;-44
2021/11/05 09:46:21;;;;;;;10.37;8.50;;;10.00;99.90;;;;;;4979820;28;20448;-45
2021/11/05 09:48:49;;;;;;;11.53;9.20;;;9.90;99.90;;;;;;4980232;28;20248;-47
2021/11/05 09:51:14;;;;;;;11.13;9.77;;;9.80;99.90;;;;;;4982229;28;20652;-45
2021/11/05 09:53:40;;;;;;;14.23;9.10;;;9.80;99.90;;;;;;4980040;28;20447;-45
2021/11/05 09:56:09;;;;;;;11.07;9.30;;;9.90;99.90;;;;;;4978841;28;20198;-48
2021/11/05 09:58:38;;;;;;;11.13;9.37;;;9.90;99.90;;;;;;4980248;28;21339;-45
2021/11/05 10:01:08;;;;;;;14.73;9.53;;;10.00;99.90;;;;;;4978328;28;20440;-44
2021/11/05 10:03:35;;;;;;;14.40;9.67;;;10.00;99.90;;;;;;4982766;28;20459;-44
2021/11/05 10:06:01;;;;;;;11.60;9.60;;;9.90;99.90;;;;;;4980513;28;20433;-41
2021/11/05 10:08:31;;;;;;;10.43;8.97;;;10.00;99.90;;;;;;4974696;28;20483;-43
2021/11/05 10:11:17;;;;;;;12.07;8.93;;;10.10;99.90;;;;;;4978016;28;20430;-42
2021/11/05 10:13:43;;;;;;;12.90;10.43;;;10.00;99.90;;;;;;4968978;28;20427;-44
2021/11/05 10:16:13;;;;;;;13.30;10.40;;;10.10;99.90;;;;;;4977070;28;20883;-44
2021/11/05 10:19:05;;;;;;;14.63;10.90;;;10.20;99.90;;;;;;4980284;28;20212;-45
2021/11/05 10:21:43;;;;;;;12.50;9.57;;;10.20;99.90;;;;;;4974736;28;20453;-43
2021/11/05 10:24:18;;;;;;;10.60;9.10;;;10.20;99.90;;;;;;4975844;28;20734;-44
2021/11/05 10:26:44;;;;;;;14.53;9.40;;;10.30;99.90;;;;;;4978396;28;20829;-43
2021/11/05 10:29:33;;;;;;;13.50;11.27;;;10.30;99.90;;;;;;4978917;28;21020;-48
2021/11/05 10:32:03;;;;;;;13.80;10.47;;;10.40;99.90;;;;;;4975876;28;20437;-41
2021/11/05 10:34:54;;;;;;;12.77;9.50;;;10.40;99.90;;;;;;4972804;28;20434;-46
2021/11/05 10:37:28;;;;;;;11.13;9.90;;;10.50;99.90;;;;;;4977862;28;20500;-48
2021/11/05 10:39:56;;;;;;;14.30;10.20;;;10.60;99.90;;;;;;4977909;28;20488;-42
2021/11/05 10:42:37;;;;;;;11.97;9.80;;;10.70;99.90;;;;;;4975565;28;20866;-45
2021/11/05 10:45:10;;;;;;;12.50;10.27;;;10.70;99.90;;;;;;4977816;28;20989;-46
2021/11/05 10:47:36;;;;;;;13.03;9.30;;;10.60;99.90;;;;;;4978820;28;20815;-45
2021/11/05 10:50:11;;;;;;;14.50;10.53;;;10.70;99.90;;;;;;4973341;28;20879;-44
2021/11/05 10:52:37;;;;;;;11.57;9.53;;;10.70;99.90;;;;;;4990736;23;20446;-52
2021/11/05 10:55:03;;;;;;;15.47;10.60;;;10.70;99.90;;;;;;4975638;28;20439;-53
2021/11/05 10:57:42;;;;;;;11.77;9.20;;;10.70;99.90;;;;;;4975877;28;20186;-53
2021/11/05 11:00:25;;;;;;;11.67;9.60;;;10.60;99.90;;;;;;4967414;28;20449;-52
2021/11/05 11:02:51;;;;;;;11.10;9.60;;;10.70;99.90;;;;;;4973226;28;20471;-55
2021/11/05 11:05:33;;;;;;;11.07;9.50;;;10.70;99.90;;;;;;4976326;28;20453;-52
2021/11/05 11:07:59;;;;;;;12.87;9.90;;;10.90;99.90;;;;;;4976678;28;20275;-52
2021/11/05 11:10:29;;;;;;;14.03;9.30;;;11.00;99.90;;;;;;4974710;28;20487;-54
2021/11/05 11:12:55;;;;;;;12.37;10.40;;;10.80;99.90;;;;;;4976008;28;20449;-52
2021/11/05 11:15:35;;;;;;;11.90;9.27;;;10.90;99.90;;;;;;4973750;28;20549;-51
2021/11/05 11:18:01;;;;;;;15.53;9.40;;;10.90;99.90;;;;;;4971276;28;20217;-53
2021/11/05 11:20:36;;;;;;;11.53;9.20;;;10.90;99.90;;;;;;4975686;28;21301;-52
2021/11/05 11:23:03;;;;;;;15.03;9.67;;;11.10;99.90;;;;;;4977149;28;20494;-54
2021/11/05 11:25:29;;;;;;;11.80;9.87;;;11.10;99.90;;;;;;4975682;28;20604;-49
2021/11/05 11:27:55;;;;;;;11.27;9.63;;;11.00;99.90;;;;;;4975162;28;20465;-51
2021/11/05 11:30:20;;;;;;;13.07;9.13;;;10.80;99.90;;;;;;4961236;28;20448;-48
2021/11/05 11:32:50;;;;;;;11.23;9.03;;;10.80;99.90;;;;;;4975595;28;20220;-51
2021/11/05 11:35:16;;;;;;;19.57;9.73;;;10.80;99.90;;;;;;4977671;28;20652;-51
2021/11/05 11:37:42;;;;;;;13.27;8.80;;;10.70;99.90;;;;;;4968244;28;20509;-49
2021/11/05 11:40:09;;;;;;;12.80;9.53;;;10.80;99.90;;;;;;4981785;28;20472;-51
2021/11/05 11:42:36;;;;;;;11.87;9.93;;;10.70;99.90;;;;;;4979012;28;20486;-51
2021/11/05 11:45:06;;;;;;;12.20;9.90;;;10.50;99.90;;;;;;4964946;28;20530;-53
2021/11/05 11:47:49;;;;;;;11.77;9.60;;;10.70;99.90;;;;;;4980042;28;20579;-55
2021/11/05 11:50:30;;;;;;;15.33;10.10;;;10.90;99.90;;;;;;4980482;28;20972;-54
2021/11/05 11:53:05;;;;;;;10.47;8.73;;;10.80;99.90;;;;;;4978063;28;20997;-52
2021/11/05 11:55:33;;;;;;;11.83;9.20;;;10.70;99.90;;;;;;4965650;28;20903;-54
2021/11/05 11:58:18;;;;;;;12.20;9.93;;;10.70;99.90;;;;;;4977562;28;20456;-55
2021/11/05 12:00:49;;;;;;;13.27;9.90;;;10.80;99.90;;;;;;4977225;28;20460;-50
2021/11/05 12:03:28;;;;;;;11.67;9.13;;;10.80;99.90;;;;;;4978707;28;20464;-52
2021/11/05 12:06:01;;;;;;;16.00;9.87;;;10.80;99.90;;;;;;4979374;28;20471;-52
2021/11/05 12:08:41;;;;;;;11.10;9.70;;;10.70;99.90;;;;;;4978394;28;20531;-53
2021/11/05 12:11:07;;;;;;;12.27;9.30;;;10.70;99.90;;;;;;4977016;28;20864;-53
2021/11/05 12:13:33;;;;;;;13.43;9.93;;;10.80;99.90;;;;;;4979836;28;20421;-53
2021/11/05 12:16:16;;;;;;;16.37;10.57;;;10.90;99.90;;;;;;4959060;28;20196;-51
2021/11/05 12:18:54;;;;;;;12.70;9.77;;;11.00;99.90;;;;;;4976343;28;20182;-50
2021/11/05 12:21:21;;;;;;;11.53;9.47;;;11.20;99.90;;;;;;4978124;28;20452;-48
2021/11/05 12:24:16;;;;;;;10.80;9.40;;;11.20;99.90;;;;;;4980239;28;20507;-48
2021/11/05 12:26:44;;;;;;;13.30;9.83;;;11.10;99.90;;;;;;4962245;28;20440;-51
2021/11/05 12:29:10;;;;;;;13.57;9.90;;;10.80;99.90;;;;;;4968267;28;20474;-48
2021/11/05 12:31:43;;;;;;;10.73;9.60;;;10.70;99.90;;;;;;4970005;28;20460;-51
2021/11/05 12:34:24;;;;;;;11.50;10.30;;;10.70;99.90;;;;;;4967143;28;20458;-51
2021/11/05 12:36:52;;;;;;;12.27;10.70;;;10.60;99.90;;;;;;4970588;28;20430;-52
2021/11/05 12:39:47;;;;;;;16.60;10.40;;;10.60;99.90;;;;;;4971264;28;20442;-51
2021/11/05 12:42:17;;;;;;;14.10;10.10;;;10.70;99.90;;;;;;4960460;28;20503;-49
2021/11/05 12:45:00;;;;;;;11.20;9.30;;;10.70;99.90;;;;;;4971997;28;20430;-50
2021/11/05 12:47:46;;;;;;;12.20;10.30;;;10.80;99.90;;;;;;4970049;28;20471;-52
2021/11/05 12:50:15;;;;;;;12.73;10.00;;;11.00;99.90;;;;;;4972164;28;20437;-50
2021/11/05 12:52:49;;;;;;;11.50;9.83;;;11.00;99.90;;;;;;4973255;28;20456;-49